Search for airport 
image banner adimage banner adimage banner ad
image banner ad

CN48 - St Joseph's Medical Center

Located in Stockton, United States

ICAO - CN48, IATA -

Data provided by Airmate  

General information

Coordinates: N37°58'13" W121°17'16"
Elevation is 47 feet MSL.
Magnetic variation is 13° East
View others Airports in California

Operational data

Special qualification required
Current time UTC:
Current local time:
Weather at : KSCK - Stockton Metropolitan ( 9 km )
METAR: KSCK 150955Z AUTO 26011KT 10SM CLR 14/11 A3004 RMK AO2 SLP171 T01440106
TAF: KSCK 150532Z 1506/1606 27010KT P6SM SKC FM151800 32010KT P6SM SKC
View NOTAMs / SUP AIP / TFR affecting this airport [VIEW]
Communications frequencies: [VIEW]

Runways:

Airport contact information

Address: Stockton United States

Satellite view of CN48